Nearby METAR Reports

 

KRNT - Renton, Washington, USA
Distance from station: NNW 3mi, 4km
Updated: Mon, 04-Mar-2024 11:53am PST
Mostly cloudy
Mostly cloudy
 Wind from S
Wind: S 8 mph , 13 km/h, Gust: 21 mph , 33 km/h
Temperature: 46°F , 8°C
Wind Chill: 42°F , 6°C
Dew Point: 28°F , -2°C
Humidity: 50%
Barometer: 29.94 inHg , 1013.9 hPa
Clouds: Mostly cloudy
Visibility: 10 miles , 16 km
Cloud details: Partly cloudy 4400 ft
Mostly cloudy 5500 ft
2024/03/04 19:53 KRNT 041953Z 19007G18KT 10SM SCT044 BKN055 08/M02 A2994 RMK AO2 SLP143 T00831017
KSEA - Seattle/Metro, Washington, USA
Distance from station: W 5mi, 9km
Updated: Mon, 04-Mar-2024 11:53am PST
Mostly cloudy
Mostly cloudy
 Wind from SSW
Wind: SSW 13 mph , 20 km/h
Temperature: 45°F , 7°C
Wind Chill: 39°F , 4°C
Dew Point: 27°F , -3°C
Humidity: 49%
Barometer: 29.93 inHg , 1013.5 hPa
Clouds: Mostly cloudy
Visibility: 10 miles , 16 km
Cloud details: Partly cloudy 3400 ft
Mostly cloudy 5000 ft
Mostly cloudy 20000 ft
2024/03/04 19:53 KSEA 041953Z 21011KT 10SM SCT034 BKN050 BKN200 07/M03 A2993 RMK AO2 SLP144 T00671033
KBFI - Seattle/Boeing, Washington, USA
Distance from station: NW 8mi, 13km
Updated: Mon, 04-Mar-2024 11:53am PST
Partly cloudy
Partly cloudy
 Wind from SSW
Wind: SSW 8 mph , 13 km/h
Temperature: 43°F , 6°C
Wind Chill: 38°F , 3°C
Dew Point: 30°F , -1°C
Humidity: 61%
Barometer: 29.94 inHg , 1013.9 hPa
Clouds: Partly cloudy
Visibility: 10 miles , 16 km
Cloud details: Partly cloudy 3500 ft
2024/03/04 19:53 KBFI 041953Z 21007KT 10SM SCT035 06/M01 A2994 RMK AO2 SLP138 T00611011
 
KTIW - Tacoma, Washington, USA
Distance from station: SW 22mi, 36km
Updated: Mon, 04-Mar-2024 11:53am PST
Clear
Clear
 Wind from S
Wind: S 13 mph , 20 km/h, Gust: 20 mph , 31 km/h
Temperature: 45°F , 7°C
Wind Chill: 39°F , 4°C
Dew Point: 34°F , 1°C
Humidity: 66%
Barometer: 29.94 inHg , 1013.9 hPa
Clouds: Clear
Visibility: 10 miles , 16 km
2024/03/04 19:53 KTIW 041953Z 19011G17KT 10SM CLR 07/01 A2994 RMK AO2 SLP141 T00670011
KPLU - Puyallup/Thun, Washington, USA
Distance from station: S 25mi, 41km
Updated: Mon, 04-Mar-2024 12:15pm PST
Light Drizzle
Light Drizzle
 Wind from WSW
Wind: WSW 6 mph , 9 km/h, Gust: 13 mph , 20 km/h
Temperature: 45°F , 7°C
Wind Chill: 42°F , 6°C
Dew Point: 27°F , -3°C
Humidity: 49%
Barometer: 29.93 inHg , 1013.5 hPa
Summary: Light Drizzle
Visibility: 10 miles , 16 km
2024/03/04 20:15 KPLU 042015Z AUTO 24005G11KT 10SM -DZ 07/M03 A2993 RMK AO2
KPWT - Bremerton Ntnl, Washington, USA
Distance from station: W 26mi, 41km
Updated: Mon, 04-Mar-2024 11:56am PST
Mostly cloudy
Mostly cloudy
 Wind from S
Wind: S 9 mph , 15 km/h
Temperature: 41°F , 5°C
Wind Chill: 35°F , 2°C
Dew Point: 34°F , 1°C
Humidity: 76%
Barometer: 29.93 inHg , 1013.5 hPa
Clouds: Mostly cloudy
Visibility: 10 miles , 16 km
Cloud details: Mostly cloudy 2400 ft
Mostly cloudy 3000 ft
Mostly cloudy 3700 ft
2024/03/04 19:56 KPWT 041956Z AUTO 17008KT 10SM BKN024 BKN030 BKN037 05/01 A2993 RMK AO2 SLP142 T00500011
 
KTCM - Tacoma/Mc Chord, Washington, USA
Distance from station: SSW 27mi, 43km
Updated: Mon, 04-Mar-2024 11:55am PST

 
2024/03/04 19:55
KPAE - Everett, Washington, USA
Distance from station: N 32mi, 51km
Updated: Mon, 04-Mar-2024 11:53am PST
Few Clouds
Few Clouds
 Wind from SSE
Wind: SSE 8 mph , 13 km/h
Temperature: 43°F , 6°C
Wind Chill: 38°F , 3°C
Dew Point: 30°F , -1°C
Humidity: 61%
Barometer: 29.93 inHg , 1013.5 hPa
Clouds: Few Clouds
Visibility: 10 miles , 16 km
Cloud details: Few Clouds 4800 ft
2024/03/04 19:53 KPAE 041953Z 15007KT 10SM FEW048 06/M01 A2993 RMK AO2 SLP137 T00611006
KGRF - Fort Lewis/Gray, Washington, USA
Distance from station: SSW 32mi, 52km
Updated: Mon, 04-Mar-2024 11:55am PST

 
2024/03/04 19:55
 
KSMP - Stampede Pass, Washington, USA
Distance from station: ESE 42mi, 68km
Updated: Mon, 04-Mar-2024 11:56am PST
Partly cloudy
Partly cloudy
 Wind from varies
Wind: varies 6 mph , 9 km/h
Temperature: 25°F , -4°C
Wind Chill: 18°F , -8°C
Dew Point: 18°F , -8°C
Humidity: 74%
Barometer: 29.79 inHg , 1008.8 hPa
Clouds: Partly cloudy
Visibility: 9 miles , 14 km
Cloud details: Few Clouds 3300 ft
Partly cloudy 4300 ft
2024/03/04 19:56 KSMP 041956Z AUTO VRB05KT 9SM FEW033 SCT043 M04/M08 A2979 RMK AO2 SNB10E14 SLP125 P0000 T10441083
KSHN - Shelton, Washington, USA
Distance from station: WSW 46mi, 75km
Updated: Mon, 04-Mar-2024 11:53am PST
Mostly cloudy
Mostly cloudy
 Wind from SSE
Wind: SSE 8 mph , 13 km/h
Temperature: 45°F , 7°C
Wind Chill: 41°F , 5°C
Dew Point: 32°F , 0°C
Humidity: 61%
Barometer: 29.91 inHg , 1012.9 hPa
Clouds: Mostly cloudy
Visibility: 10 miles , 16 km
Cloud details: Mostly cloudy 3600 ft
Mostly cloudy 4500 ft
Mostly cloudy 11000 ft
2024/03/04 19:53 KSHN 041953Z AUTO 15007KT 10SM BKN036 BKN045 BKN110 07/00 A2991 RMK AO2 SLP132 T00670000
KOLM - Olympia, Washington, USA
Distance from station: SW 47mi, 76km
Updated: Mon, 04-Mar-2024 11:54am PST
Overcast
Overcast
 Wind from SSW
Wind: SSW 8 mph , 13 km/h
Temperature: 41°F , 5°C
Wind Chill: 36°F , 2°C
Dew Point: 34°F , 1°C
Humidity: 76%
Barometer: 29.95 inHg , 1014.2 hPa
Clouds: Overcast
Visibility: 10 miles , 16 km
Cloud details: Mostly cloudy 1700 ft
Overcast 2400 ft
2024/03/04 19:54 KOLM 041954Z AUTO 20007KT 10SM BKN017 OVC024 05/01 A2995 RMK AO2 SLP145 T00500011
 
KAWO - Arlington Muni, Washington, USA
Distance from station: N 49mi, 78km
Updated: Mon, 04-Mar-2024 10:56am PST
NOT Current
Overcast
Overcast
 Wind from SSE
Wind: SSE 8 mph , 13 km/h
Temperature: 39°F , 4°C
Wind Chill: 33°F , 1°C
Dew Point: 36°F , 2°C
Humidity: 87%
Barometer: 29.95 inHg , 1014.2 hPa
Clouds: Overcast
Visibility: 10 miles , 16 km
Cloud details: Mostly cloudy 1000 ft
Overcast 1500 ft
2024/03/04 18:56 KAWO 041856Z AUTO 15007KT 10SM BKN010 OVC015 04/02 A2995 RMK AO2 SLP145 T00390022